createdAt,value
2019-04-20T00:02:14.376Z,13.10
2019-04-20T00:07:06.897Z,13.00
2019-04-20T00:12:10.752Z,12.90
2019-04-20T00:16:58.787Z,12.90
2019-04-20T00:22:02.020Z,12.90
2019-04-20T00:31:59.187Z,12.80
2019-04-20T00:36:43.611Z,12.90
2019-04-20T00:41:44.113Z,12.80
2019-04-20T00:46:42.187Z,13.10
2019-04-20T00:51:48.781Z,13.10
2019-04-20T00:56:24.804Z,13.10
2019-04-20T01:01:37.935Z,13.30
2019-04-20T01:07:06.279Z,13.30
2019-04-20T01:11:49.464Z,13.20
2019-04-20T01:16:51.276Z,13.30
2019-04-20T01:21:44.531Z,13.30
2019-04-20T01:26:41.907Z,13.20
2019-04-20T01:31:38.336Z,13.20
2019-04-20T01:36:45.757Z,13.40
2019-04-20T01:41:22.448Z,13.30
2019-04-20T01:46:21.518Z,13.30
2019-04-20T01:51:19.617Z,13.20
2019-04-20T01:56:21.785Z,13.20
2019-04-20T02:01:36.212Z,13.30
2019-04-20T02:06:29.175Z,13.20
2019-04-20T02:11:29.627Z,13.10
2019-04-20T02:16:28.881Z,13.10
2019-04-20T02:21:55.962Z,13.10
2019-04-20T02:27:04.630Z,13.00
2019-04-20T02:32:31.803Z,13.00
2019-04-20T02:42:51.501Z,13.00
2019-04-20T02:47:47.379Z,13.00
2019-04-20T02:53:21.950Z,12.90
2019-04-20T02:58:41.718Z,12.80
2019-04-20T03:03:13.464Z,12.80
2019-04-20T03:08:13.596Z,12.70
2019-04-20T03:13:14.481Z,12.50
2019-04-20T03:18:19.737Z,12.50
2019-04-20T03:28:22.219Z,12.50
2019-04-20T03:38:13.224Z,12.20
2019-04-20T03:42:46.525Z,12.00
2019-04-20T03:47:54.647Z,11.90
2019-04-20T03:53:18.082Z,11.70
2019-04-20T03:58:29.055Z,11.60
2019-04-20T04:04:10.964Z,11.50
2019-04-20T04:08:58.920Z,11.40
2019-04-20T04:13:39.780Z,11.20
2019-04-20T04:18:46.109Z,11.00
2019-04-20T04:23:56.234Z,10.90
2019-04-20T04:28:50.215Z,10.90
2019-04-20T04:34:17.438Z,10.80
2019-04-20T04:39:22.356Z,10.80
2019-04-20T04:44:10.958Z,10.90
2019-04-20T04:49:19.535Z,10.90
2019-04-20T04:54:16.556Z,10.90
2019-04-20T04:59:02.580Z,10.90
2019-04-20T05:04:22.791Z,10.90
2019-04-20T05:09:00.813Z,10.90
2019-04-20T05:14:00.578Z,11.10
2019-04-20T05:19:31.205Z,11.30
2019-04-20T05:24:50.724Z,11.60
2019-04-20T05:29:31.868Z,11.70
2019-04-20T05:34:44.849Z,11.90
2019-04-20T05:39:38.194Z,12.00
2019-04-20T05:44:43.971Z,12.80
2019-04-20T05:49:32.178Z,14.80
2019-04-20T05:54:36.349Z,17.00
2019-04-20T05:59:26.995Z,18.70
2019-04-20T06:04:38.806Z,20.50
2019-04-20T06:09:42.947Z,21.60
2019-04-20T06:15:09.457Z,22.10
2019-04-20T06:20:12.712Z,22.10
2019-04-20T06:25:31.146Z,23.60
2019-04-20T06:30:30.874Z,23.30
2019-04-20T06:36:07.517Z,23.10
2019-04-20T06:41:17.337Z,23.50
2019-04-20T06:46:04.459Z,23.50
2019-04-20T06:51:04.656Z,25.60
2019-04-20T06:56:29.059Z,26.30
2019-04-20T07:01:36.939Z,27.50
2019-04-20T07:07:22.415Z,26.40
2019-04-20T07:12:43.725Z,25.90
2019-04-20T07:18:17.254Z,26.70
2019-04-20T07:23:57.028Z,26.80
2019-04-20T07:29:10.361Z,27.80
2019-04-20T07:34:05.700Z,29.80
2019-04-20T07:39:33.123Z,31.70
2019-04-20T07:44:56.685Z,32.40
2019-04-20T07:50:02.394Z,32.80
2019-04-20T07:55:26.334Z,33.70
2019-04-20T08:00:26.098Z,31.40
2019-04-20T08:05:30.998Z,32.90
2019-04-20T08:11:10.284Z,32.70
2019-04-20T08:16:08.433Z,31.20
2019-04-20T08:21:28.783Z,32.90
2019-04-20T08:26:10.847Z,30.80
2019-04-20T08:31:49.039Z,31.60
2019-04-20T08:36:57.145Z,32.10
2019-04-20T08:42:10.209Z,30.90
2019-04-20T08:47:18.247Z,31.10
2019-04-20T08:52:48.343Z,30.40
2019-04-20T08:57:22.606Z,29.90
2019-04-20T09:02:28.814Z,30.70
2019-04-20T09:07:53.835Z,30.70
2019-04-20T09:12:57.243Z,31.30
2019-04-20T09:17:54.105Z,32.50
2019-04-20T09:23:16.654Z,32.20
2019-04-20T09:28:31.865Z,29.80
2019-04-20T09:34:01.510Z,31.20
2019-04-20T09:39:24.648Z,31.10
2019-04-20T09:44:20.035Z,30.50
2019-04-20T09:49:58.019Z,30.20
2019-04-20T09:55:14.688Z,30.90
2019-04-20T10:00:27.155Z,30.30
2019-04-20T10:05:23.348Z,29.80
2019-04-20T10:10:42.068Z,29.60
2019-04-20T10:15:53.450Z,29.80
2019-04-20T10:21:09.553Z,28.80
2019-04-20T10:26:32.384Z,28.20
2019-04-20T10:32:12.550Z,27.90
2019-04-20T10:37:31.518Z,26.70
2019-04-20T10:42:28.108Z,26.20
2019-04-20T10:47:21.560Z,25.70
2019-04-20T10:52:36.421Z,25.80
2019-04-20T10:57:41.746Z,25.90
2019-04-20T11:02:35.300Z,25.80
2019-04-20T11:07:36.939Z,25.60
2019-04-20T11:13:03.271Z,25.60
2019-04-20T11:18:19.529Z,25.60
2019-04-20T11:23:34.027Z,26.10
2019-04-20T11:28:50.899Z,26.30
2019-04-20T11:34:25.172Z,26.50
2019-04-20T11:39:45.368Z,25.80
2019-04-20T11:44:39.437Z,25.70
2019-04-20T11:50:09.478Z,25.80
2019-04-20T11:55:44.571Z,25.80
2019-04-20T12:00:53.990Z,25.90
2019-04-20T12:05:44.486Z,25.90
2019-04-20T12:10:54.732Z,26.20
2019-04-20T12:16:07.612Z,26.50
2019-04-20T12:21:42.785Z,26.20
2019-04-20T12:27:00.836Z,26.20
2019-04-20T12:32:21.881Z,26.40
2019-04-20T12:37:56.921Z,26.30
2019-04-20T12:42:51.073Z,26.60
2019-04-20T12:48:31.479Z,26.90
2019-04-20T12:53:30.504Z,26.20
2019-04-20T12:58:47.633Z,26.30
2019-04-20T13:04:07.540Z,26.50
2019-04-20T13:09:52.706Z,27.10
2019-04-20T13:15:42.451Z,27.40
2019-04-20T13:20:39.883Z,27.00
2019-04-20T13:26:17.391Z,27.10
2019-04-20T13:31:31.660Z,27.00
2019-04-20T13:36:38.075Z,26.50
2019-04-20T13:41:41.787Z,27.10
2019-04-20T13:47:05.125Z,26.90
2019-04-20T13:52:08.775Z,27.10
2019-04-20T13:57:29.521Z,27.30
2019-04-20T14:02:46.696Z,27.30
2019-04-20T14:08:01.489Z,27.40
2019-04-20T14:13:03.135Z,27.20
2019-04-20T14:17:51.095Z,27.20
2019-04-20T14:23:07.482Z,27.20
2019-04-20T14:28:09.509Z,26.90
2019-04-20T14:34:00.013Z,27.10
2019-04-20T14:39:08.053Z,27.10
2019-04-20T14:44:05.852Z,27.30
2019-04-20T14:49:00.684Z,27.30
2019-04-20T14:53:55.645Z,27.20
2019-04-20T14:58:57.649Z,27.10
2019-04-20T15:03:59.941Z,27.20
2019-04-20T15:08:48.347Z,27.10
2019-04-20T15:13:42.577Z,26.80
2019-04-20T15:18:40.157Z,26.80
2019-04-20T15:23:33.613Z,26.80
2019-04-20T15:28:28.324Z,26.60
2019-04-20T15:33:23.074Z,26.50
2019-04-20T15:38:17.500Z,26.20
2019-04-20T15:43:17.442Z,26.40
2019-04-20T15:48:08.132Z,26.40
2019-04-20T15:53:02.662Z,26.30
2019-04-20T15:57:57.663Z,26.30
2019-04-20T16:03:05.385Z,26.20
2019-04-20T16:08:10.663Z,26.20
2019-04-20T16:13:15.976Z,26.00
2019-04-20T16:18:00.903Z,25.80
2019-04-20T16:22:54.585Z,25.80
2019-04-20T16:27:49.792Z,25.80
2019-04-20T16:32:43.242Z,25.70
2019-04-20T16:37:38.254Z,25.60
2019-04-20T16:42:32.167Z,25.30
2019-04-20T16:47:26.076Z,25.10
2019-04-20T16:52:19.468Z,25.00
2019-04-20T16:57:14.198Z,24.80
2019-04-20T17:02:08.713Z,24.70
2019-04-20T17:07:20.724Z,24.60
2019-04-20T17:12:15.439Z,24.40
2019-04-20T17:17:09.457Z,24.20
2019-04-20T17:22:03.560Z,24.10
2019-04-20T17:27:10.893Z,23.90
2019-04-20T17:32:09.724Z,23.80
2019-04-20T17:37:04.566Z,23.70
2019-04-20T17:42:15.736Z,23.60
2019-04-20T17:47:03.691Z,23.40
2019-04-20T17:52:12.705Z,23.20
2019-04-20T17:56:44.977Z,23.00
2019-04-20T18:02:11.937Z,22.80
2019-04-20T18:07:10.974Z,22.70
2019-04-20T18:11:52.781Z,22.50
2019-04-20T18:17:11.377Z,22.40
2019-04-20T18:21:59.639Z,22.20
2019-04-20T18:27:17.373Z,22.10
2019-04-20T18:31:57.739Z,22.00
2019-04-20T18:36:52.761Z,21.80
2019-04-20T18:41:51.432Z,21.60
2019-04-20T18:47:06.437Z,21.50
2019-04-20T18:51:37.700Z,21.30
2019-04-20T18:56:39.610Z,21.10
2019-04-20T19:01:32.077Z,21.00
2019-04-20T19:06:21.757Z,20.80
2019-04-20T19:11:19.792Z,20.70
2019-04-20T19:16:37.751Z,20.60
2019-04-20T19:21:27.045Z,20.40
2019-04-20T19:26:21.985Z,20.30
2019-04-20T19:31:35.531Z,20.10
2019-04-20T19:36:19.824Z,20.10
2019-04-20T19:41:22.531Z,19.90
2019-04-20T19:46:46.267Z,19.80
2019-04-20T19:51:17.618Z,19.70
2019-04-20T19:56:03.498Z,19.60
2019-04-20T20:00:52.134Z,19.40
2019-04-20T20:05:48.416Z,19.30
2019-04-20T20:10:44.156Z,19.10
2019-04-20T20:15:37.990Z,19.10
2019-04-20T20:20:52.853Z,19.10
2019-04-20T20:25:32.402Z,19.00
2019-04-20T20:30:27.928Z,18.90
2019-04-20T20:35:23.528Z,18.90
2019-04-20T20:40:18.826Z,18.90
2019-04-20T20:45:21.106Z,19.00
2019-04-20T20:50:32.002Z,18.80
2019-04-20T20:55:06.701Z,18.80
2019-04-20T21:00:00.576Z,18.60
2019-04-20T21:04:51.142Z,18.50
2019-04-20T21:09:46.056Z,18.50
2019-04-20T21:14:42.147Z,18.50
2019-04-20T21:19:53.418Z,18.50
2019-04-20T21:24:33.797Z,18.40
2019-04-20T21:29:35.339Z,18.30
2019-04-20T21:34:24.144Z,18.20
2019-04-20T21:39:30.098Z,18.10
2019-04-20T21:44:24.157Z,18.00
2019-04-20T21:49:25.028Z,18.00
2019-04-20T21:54:05.518Z,17.80
2019-04-20T21:59:03.785Z,17.50
2019-04-20T22:03:54.818Z,17.40
2019-04-20T22:08:54.486Z,17.30
2019-04-20T22:13:46.393Z,17.20
2019-04-20T22:18:48.461Z,17.10
2019-04-20T22:23:51.084Z,17.00
2019-04-20T22:28:30.183Z,16.90
2019-04-20T22:33:35.069Z,16.80
2019-04-20T22:38:33.048Z,16.50
2019-04-20T22:43:31.594Z,16.30
2019-04-20T22:48:22.909Z,16.10
2019-04-20T22:53:33.966Z,15.90
2019-04-20T22:58:28.798Z,15.80
2019-04-20T23:03:07.215Z,15.60
2019-04-20T23:08:00.760Z,15.40
2019-04-20T23:12:56.658Z,15.40
2019-04-20T23:17:52.042Z,15.50
2019-04-20T23:22:47.918Z,15.40
2019-04-20T23:27:40.756Z,15.20
2019-04-20T23:32:35.883Z,15.00
2019-04-20T23:37:33.151Z,15.00
2019-04-20T23:42:33.580Z,14.90
2019-04-20T23:47:34.184Z,15.00
2019-04-20T23:52:49.012Z,14.80
2019-04-20T23:57:26.026Z,14.70
